createdAt,value
2018-04-26T00:00:12.698Z,60.35
2018-04-26T00:03:15.243Z,60.44
2018-04-26T00:06:17.743Z,59.98
2018-04-26T00:09:20.266Z,59.95
2018-04-26T00:12:22.811Z,60.80
2018-04-26T00:15:25.343Z,60.14
2018-04-26T00:18:27.873Z,60.43
2018-04-26T00:21:30.402Z,60.76
2018-04-26T00:24:32.947Z,60.77
2018-04-26T00:27:35.478Z,60.69
2018-04-26T00:30:38.059Z,61.21
2018-04-26T00:33:40.582Z,61.05
2018-04-26T00:36:43.101Z,61.28
2018-04-26T00:39:45.625Z,61.00
2018-04-26T00:42:48.159Z,61.00
2018-04-26T00:45:52.766Z,61.42
2018-04-26T00:48:55.336Z,61.81
2018-04-26T00:52:01.872Z,61.64
2018-04-26T00:55:04.432Z,61.79
2018-04-26T00:58:07.042Z,61.97
2018-04-26T01:01:09.651Z,62.09
2018-04-26T01:04:12.251Z,62.62
2018-04-26T01:07:14.832Z,61.97
2018-04-26T01:10:17.401Z,62.34
2018-04-26T01:13:20.872Z,62.82
2018-04-26T01:16:23.383Z,62.87
2018-04-26T01:19:25.915Z,62.51
2018-04-26T01:22:28.498Z,62.84
2018-04-26T01:25:31.073Z,62.93
2018-04-26T01:28:33.640Z,62.10
2018-04-26T01:31:36.221Z,62.64
2018-04-26T01:34:38.895Z,62.50
2018-04-26T01:37:48.095Z,62.60
2018-04-26T01:40:50.689Z,62.58
2018-04-26T01:43:53.296Z,63.07
2018-04-26T01:46:55.850Z,63.08
2018-04-26T01:49:58.572Z,63.82
2018-04-26T01:53:01.179Z,63.40
2018-04-26T01:56:03.698Z,63.57
2018-04-26T01:59:06.265Z,63.74
2018-04-26T02:02:08.841Z,63.39
2018-04-26T02:05:11.440Z,63.83
2018-04-26T02:08:14.007Z,63.50
2018-04-26T02:11:16.542Z,63.87
2018-04-26T02:14:19.131Z,64.29
2018-04-26T02:17:21.714Z,64.02
2018-04-26T02:20:24.705Z,64.24
2018-04-26T02:23:27.375Z,63.66
2018-04-26T02:26:29.968Z,63.79
2018-04-26T02:29:36.196Z,64.41
2018-04-26T02:32:38.754Z,64.13
2018-04-26T02:35:41.335Z,64.15
2018-04-26T02:38:43.933Z,64.12
2018-04-26T02:41:46.476Z,64.32
2018-04-26T02:44:49.090Z,64.57
2018-04-26T02:47:51.599Z,64.88
2018-04-26T02:50:54.129Z,64.82
2018-04-26T02:53:56.662Z,64.83
2018-04-26T02:56:59.204Z,65.58
2018-04-26T03:00:01.823Z,64.90
2018-04-26T03:03:04.427Z,65.03
2018-04-26T03:06:08.079Z,65.17
2018-04-26T03:09:10.656Z,64.74
2018-04-26T03:12:13.297Z,65.15
2018-04-26T03:15:15.929Z,65.03
2018-04-26T03:18:19.577Z,65.11
2018-04-26T03:21:22.169Z,64.85
2018-04-26T03:24:24.813Z,65.18
2018-04-26T03:27:27.433Z,66.01
2018-04-26T03:30:30.041Z,65.33
2018-04-26T03:33:32.649Z,65.59
2018-04-26T03:36:35.295Z,65.72
2018-04-26T03:39:37.913Z,65.72
2018-04-26T03:42:40.558Z,65.83
2018-04-26T03:45:44.449Z,65.92
2018-04-26T03:48:48.183Z,65.76
2018-04-26T03:51:50.762Z,66.58
2018-04-26T03:54:55.750Z,65.67
2018-04-26T03:57:59.477Z,65.57
2018-04-26T04:01:13.758Z,65.44
2018-04-26T04:04:29.291Z,65.91
2018-04-26T04:07:32.903Z,65.71
2018-04-26T04:10:36.118Z,66.07
2018-04-26T04:13:38.695Z,65.75
2018-04-26T04:16:42.094Z,65.93
2018-04-26T04:19:46.588Z,65.80
2018-04-26T04:22:49.197Z,66.39
2018-04-26T04:25:51.775Z,66.05
2018-04-26T04:28:54.347Z,65.43
2018-04-26T04:31:56.883Z,65.51
2018-04-26T04:34:59.383Z,66.24
2018-04-26T04:38:01.909Z,65.62
2018-04-26T04:41:04.415Z,65.64
2018-04-26T04:44:06.962Z,65.78
2018-04-26T04:47:09.465Z,65.86
2018-04-26T04:50:11.968Z,66.03
2018-04-26T04:53:14.483Z,65.11
2018-04-26T04:56:16.980Z,65.36
2018-04-26T04:59:19.522Z,65.59
2018-04-26T05:02:22.016Z,65.55
2018-04-26T05:05:24.512Z,65.67
2018-04-26T05:08:27.124Z,65.99
2018-04-26T05:11:29.670Z,65.44
2018-04-26T05:14:32.226Z,66.28
2018-04-26T05:17:34.899Z,65.30
2018-04-26T05:20:37.401Z,65.38
2018-04-26T05:23:39.926Z,65.15
2018-04-26T05:26:42.474Z,65.42
2018-04-26T05:29:45.053Z,64.89
2018-04-26T05:32:47.578Z,64.75
2018-04-26T05:35:50.098Z,64.59
2018-04-26T05:38:52.651Z,64.39
2018-04-26T05:41:55.168Z,64.63
2018-04-26T05:44:57.717Z,64.78
2018-04-26T05:48:00.291Z,64.79
2018-04-26T05:51:02.810Z,64.85
2018-04-26T05:54:06.333Z,65.41
2018-04-26T05:57:08.839Z,65.50
2018-04-26T06:00:11.507Z,64.84
2018-04-26T06:03:14.021Z,65.20
2018-04-26T06:06:21.254Z,64.92
2018-04-26T06:09:23.805Z,64.64
2018-04-26T06:12:27.045Z,64.38
2018-04-26T06:15:29.550Z,64.26
2018-04-26T06:18:32.108Z,64.21
2018-04-26T06:21:34.617Z,63.65
2018-04-26T06:24:37.128Z,63.16
2018-04-26T06:27:39.666Z,63.25
2018-04-26T06:30:42.171Z,62.96
2018-04-26T06:33:44.736Z,62.64
2018-04-26T06:36:47.309Z,62.14
2018-04-26T06:39:49.750Z,62.39
2018-04-26T06:42:52.391Z,62.41
2018-04-26T06:45:55.034Z,62.44
2018-04-26T06:48:57.714Z,62.68
2018-04-26T06:52:01.155Z,62.85
2018-04-26T06:55:03.674Z,62.92
2018-04-26T06:58:06.234Z,63.29
2018-04-26T07:01:08.755Z,63.46
2018-04-26T07:04:11.315Z,63.61
2018-04-26T07:07:13.816Z,63.69
2018-04-26T07:10:16.375Z,64.01
2018-04-26T07:13:18.887Z,64.55
2018-04-26T07:16:21.538Z,64.37
2018-04-26T07:19:24.080Z,64.82
2018-04-26T07:22:27.118Z,64.95
2018-04-26T07:25:30.211Z,64.96
2018-04-26T07:53:58.854Z,66.14
2018-04-26T07:57:01.442Z,65.48
2018-04-26T08:00:03.969Z,64.89
2018-04-26T08:03:06.475Z,64.49
2018-04-26T08:06:09.027Z,63.23
2018-04-26T08:09:11.524Z,62.47
2018-04-26T08:12:14.033Z,61.26
2018-04-26T08:22:13.044Z,58.62
2018-04-26T08:25:17.513Z,58.27
2018-04-26T08:28:20.026Z,57.26
2018-04-26T08:31:22.883Z,56.60
2018-04-26T08:34:25.419Z,56.35
2018-04-26T08:37:28.613Z,55.70
2018-04-26T08:40:31.211Z,55.78
2018-04-26T08:43:33.745Z,55.38
2018-04-26T08:46:36.283Z,55.21
2018-04-26T08:49:38.807Z,57.51
2018-04-26T08:52:41.383Z,60.22
2018-04-26T08:55:43.971Z,64.53
2018-04-26T08:58:46.552Z,66.67
2018-04-26T09:01:49.146Z,66.66
2018-04-26T09:04:51.767Z,67.41
2018-04-26T09:07:54.313Z,66.85
2018-04-26T09:10:56.882Z,68.41
2018-04-26T09:13:59.566Z,65.79
2018-04-26T09:17:02.096Z,65.16
2018-04-26T09:20:04.701Z,67.10
2018-04-26T09:23:07.236Z,67.34
2018-04-26T09:26:09.766Z,66.73
2018-04-26T09:29:12.264Z,67.02
2018-04-26T09:32:14.770Z,70.10
2018-04-26T09:35:17.306Z,71.09
2018-04-26T09:38:19.818Z,71.43
2018-04-26T09:41:22.385Z,72.79
2018-04-26T09:44:24.921Z,70.83
2018-04-26T09:47:27.441Z,70.06
2018-04-26T09:50:29.974Z,70.46
2018-04-26T09:53:32.476Z,70.70
2018-04-26T09:56:34.998Z,70.51
2018-04-26T09:59:37.509Z,70.70
2018-04-26T10:02:45.933Z,69.50
2018-04-26T10:05:54.174Z,69.64
2018-04-26T10:08:56.695Z,68.91
2018-04-26T10:11:59.219Z,69.40
2018-04-26T10:15:01.821Z,67.67
2018-04-26T10:18:04.298Z,67.61
2018-04-26T10:21:06.863Z,67.20
2018-04-26T10:24:09.355Z,66.63
2018-04-26T10:27:12.047Z,66.34
2018-04-26T10:30:15.277Z,65.86
2018-04-26T10:33:17.876Z,65.01
2018-04-26T10:36:21.021Z,63.85
2018-04-26T10:39:23.647Z,63.07
2018-04-26T10:42:26.186Z,61.98
2018-04-26T10:45:28.756Z,60.26
2018-04-26T10:48:31.273Z,60.58
2018-04-26T10:51:33.836Z,59.48
2018-04-26T10:54:36.403Z,58.47
2018-04-26T10:57:38.940Z,58.37
2018-04-26T11:00:41.540Z,59.01
2018-04-26T11:03:44.080Z,59.50
2018-04-26T11:06:47.363Z,59.73
2018-04-26T11:09:50.144Z,60.25
2018-04-26T11:12:52.751Z,60.72
2018-04-26T11:15:55.374Z,61.80
2018-04-26T11:19:01.052Z,60.03
2018-04-26T11:22:03.744Z,57.72
2018-04-26T11:25:06.361Z,56.50
2018-04-26T11:28:08.972Z,55.61
2018-04-26T11:31:12.828Z,53.75
2018-04-26T11:34:16.579Z,52.78
2018-04-26T11:37:19.589Z,51.35
2018-04-26T11:40:22.210Z,50.11
2018-04-26T11:43:24.852Z,48.14
2018-04-26T11:46:27.359Z,47.92
2018-04-26T11:49:29.871Z,46.89
2018-04-26T11:52:32.470Z,45.28
2018-04-26T11:55:34.898Z,45.61
2018-04-26T11:58:37.455Z,45.62
2018-04-26T12:01:40.333Z,45.95
2018-04-26T12:04:42.958Z,45.48
2018-04-26T12:07:45.795Z,46.04
2018-04-26T12:10:48.443Z,45.13
2018-04-26T12:13:51.057Z,44.56
2018-04-26T12:16:53.662Z,43.86
2018-04-26T12:19:56.208Z,44.25
2018-04-26T12:22:58.703Z,45.23
2018-04-26T12:29:41.665Z,46.14
2018-04-26T12:32:44.275Z,48.74
2018-04-26T12:35:46.831Z,51.33
2018-04-26T12:38:49.340Z,53.60
2018-04-26T12:41:51.887Z,53.84
2018-04-26T12:44:54.932Z,53.56
2018-04-26T12:47:58.892Z,53.76
2018-04-26T12:51:02.174Z,55.94
2018-04-26T12:54:05.608Z,56.88
2018-04-26T12:57:12.979Z,56.54
2018-04-26T13:00:15.789Z,58.45
2018-04-26T13:03:18.956Z,57.36
2018-04-26T13:06:21.796Z,57.86
2018-04-26T13:09:25.253Z,57.66
2018-04-26T13:12:27.806Z,57.91
2018-04-26T13:15:31.749Z,57.50
2018-04-26T13:18:34.349Z,57.12
2018-04-26T13:21:36.917Z,58.49
2018-04-26T13:24:39.486Z,63.80
2018-04-26T13:27:42.961Z,66.39
2018-04-26T13:30:46.432Z,65.40
2018-04-26T13:33:49.535Z,64.69
2018-04-26T13:36:52.063Z,65.39
2018-04-26T13:39:54.624Z,65.19
2018-04-26T13:42:57.240Z,66.27
2018-04-26T13:45:59.878Z,63.52
2018-04-26T13:49:02.421Z,59.87
2018-04-26T13:52:05.071Z,58.90
2018-04-26T13:55:07.722Z,57.85
2018-04-26T13:58:16.260Z,56.27
2018-04-26T14:01:18.835Z,55.09
2018-04-26T14:04:21.425Z,53.47
2018-04-26T14:07:24.027Z,53.33
2018-04-26T14:10:26.590Z,51.86
2018-04-26T14:13:29.145Z,51.02
2018-04-26T14:16:31.763Z,51.24
2018-04-26T14:19:34.292Z,50.30
2018-04-26T14:22:36.844Z,49.14
2018-04-26T14:25:39.408Z,49.60
2018-04-26T14:28:41.987Z,47.52
2018-04-26T14:31:44.561Z,47.32
2018-04-26T14:34:47.149Z,47.25
2018-04-26T14:37:49.669Z,45.75
2018-04-26T14:40:52.180Z,46.98
2018-04-26T14:43:54.725Z,45.98
2018-04-26T14:46:57.291Z,46.91
2018-04-26T14:49:59.861Z,46.43
2018-04-26T14:53:02.437Z,47.17
2018-04-26T14:56:05.018Z,47.80
2018-04-26T14:59:09.200Z,47.57
2018-04-26T15:02:11.780Z,47.70
2018-04-26T15:05:14.885Z,47.76
2018-04-26T15:08:17.534Z,48.14
2018-04-26T15:11:20.527Z,48.72
2018-04-26T16:09:03.656Z,55.65
2018-04-26T16:12:26.536Z,54.34
2018-04-26T16:15:41.308Z,54.26
2018-04-26T16:18:54.857Z,54.22
2018-04-26T16:22:14.969Z,53.87
2018-04-26T16:29:17.082Z,53.68
2018-04-26T16:32:36.598Z,52.52
2018-04-26T16:35:51.061Z,53.22
2018-04-26T16:39:15.451Z,53.66
2018-04-26T16:42:17.955Z,52.05
2018-04-26T16:45:21.422Z,51.68
2018-04-26T16:48:24.004Z,51.54
2018-04-26T16:51:26.669Z,52.23
2018-04-26T16:54:29.281Z,52.68
2018-04-26T16:57:31.912Z,52.96
2018-04-26T17:00:34.843Z,52.88
2018-04-26T17:03:37.612Z,52.92
2018-04-26T17:06:40.271Z,53.29
2018-04-26T17:09:43.065Z,53.37
2018-04-26T17:12:45.646Z,53.48
2018-04-26T17:15:48.191Z,53.54
2018-04-26T17:18:50.855Z,53.41
2018-04-26T17:21:53.662Z,53.29
2018-04-26T17:24:56.366Z,52.79
2018-04-26T17:27:59.013Z,52.90
2018-04-26T17:31:01.718Z,52.94
2018-04-26T17:34:04.476Z,53.52
2018-04-26T17:37:09.074Z,54.13
2018-04-26T17:40:11.678Z,54.33
2018-04-26T17:43:20.577Z,54.42
2018-04-26T17:46:23.280Z,54.67
2018-04-26T17:49:25.971Z,55.00
2018-04-26T17:52:28.849Z,55.48
2018-04-26T17:55:31.684Z,55.15
2018-04-26T17:58:34.438Z,55.23
2018-04-26T18:01:37.335Z,55.35
2018-04-26T18:04:40.091Z,55.68
2018-04-26T18:07:42.790Z,55.68
2018-04-26T18:10:45.593Z,56.08
2018-04-26T18:13:48.303Z,56.25
2018-04-26T18:16:51.019Z,56.32
2018-04-26T18:20:01.040Z,56.74
2018-04-26T18:22:56.384Z,56.50
2018-04-26T18:25:59.155Z,56.75
2018-04-26T18:29:01.827Z,56.81
2018-04-26T18:32:04.870Z,56.99
2018-04-26T18:35:07.449Z,57.00
2018-04-26T18:38:10.439Z,56.85
2018-04-26T18:41:13.054Z,56.62
2018-04-26T18:44:15.876Z,56.27
2018-04-26T18:47:18.786Z,55.55
2018-04-26T18:50:21.559Z,55.52
2018-04-26T18:53:24.817Z,55.42
2018-04-26T18:56:27.556Z,56.04
2018-04-26T18:59:30.360Z,56.03
2018-04-26T19:02:33.229Z,56.03
2018-04-26T19:05:36.094Z,56.08
2018-04-26T19:08:39.199Z,56.77
2018-04-26T19:11:41.898Z,56.75
2018-04-26T19:14:44.521Z,56.74
2018-04-26T19:17:47.324Z,57.14
2018-04-26T19:20:50.707Z,57.24
2018-04-26T19:23:53.387Z,57.46
2018-04-26T19:26:56.018Z,57.78
2018-04-26T19:29:58.749Z,57.80
2018-04-26T19:33:01.775Z,57.41
2018-04-26T19:36:04.493Z,57.37
2018-04-26T19:39:07.233Z,57.38
2018-04-26T19:42:09.935Z,57.14
2018-04-26T19:45:12.635Z,57.09
2018-04-26T19:48:15.228Z,58.00
2018-04-26T19:51:17.817Z,57.85
2018-04-26T19:54:20.660Z,57.81
2018-04-26T19:57:23.396Z,57.67
2018-04-26T20:00:26.076Z,57.15
2018-04-26T20:03:28.778Z,57.20
2018-04-26T20:06:31.412Z,57.04
2018-04-26T20:09:34.058Z,57.26
2018-04-26T20:12:36.730Z,56.98
2018-04-26T20:15:39.352Z,56.54
2018-04-26T20:18:41.919Z,56.93
2018-04-26T20:21:44.477Z,56.83
2018-04-26T20:24:47.184Z,57.07
2018-04-26T20:27:49.836Z,57.70
2018-04-26T20:30:52.459Z,57.82
2018-04-26T20:33:55.009Z,57.97
2018-04-26T20:36:57.573Z,58.10
2018-04-26T20:40:00.250Z,59.40
2018-04-26T20:43:02.878Z,59.40
2018-04-26T20:46:05.519Z,59.33
2018-04-26T20:49:08.143Z,59.30
2018-04-26T20:52:10.703Z,59.21
2018-04-26T20:55:13.252Z,59.32
2018-04-26T20:58:15.799Z,58.83
2018-04-26T21:01:18.411Z,59.21
2018-04-26T21:04:20.917Z,59.21
2018-04-26T21:07:23.469Z,58.85
2018-04-26T21:10:26.099Z,58.99
2018-04-26T21:13:28.632Z,59.28
2018-04-26T21:16:31.199Z,58.94
2018-04-26T21:19:33.814Z,58.76
2018-04-26T21:22:36.322Z,58.75
2018-04-26T21:25:38.874Z,59.11
2018-04-26T21:28:41.488Z,58.85
2018-04-26T21:31:44.004Z,58.96
2018-04-26T21:34:46.574Z,58.67
2018-04-26T21:37:49.205Z,58.55
2018-04-26T21:40:51.710Z,58.57
2018-04-26T21:43:54.278Z,58.52
2018-04-26T21:46:56.824Z,58.49
2018-04-26T21:50:04.899Z,58.54
2018-04-26T21:53:13.010Z,58.54
2018-04-26T21:56:21.200Z,58.60
2018-04-26T21:59:29.222Z,58.64
2018-04-26T22:02:31.179Z,58.83
2018-04-26T22:05:35.100Z,58.92
2018-04-26T22:08:37.646Z,59.24
2018-04-26T22:11:40.687Z,59.00
2018-04-26T22:14:43.219Z,59.25
2018-04-26T22:17:45.708Z,59.39
2018-04-26T22:20:48.193Z,59.27
2018-04-26T22:23:50.700Z,59.68
2018-04-26T22:26:53.237Z,60.02
2018-04-26T22:29:55.827Z,60.61
2018-04-26T22:32:58.372Z,60.48
2018-04-26T22:36:00.858Z,60.60
2018-04-26T22:39:03.394Z,61.71
2018-04-26T22:42:05.925Z,61.90
2018-04-26T22:45:08.472Z,61.48
2018-04-26T22:48:10.997Z,61.74
2018-04-26T22:51:13.512Z,61.85
2018-04-26T22:54:16.051Z,62.25
2018-04-26T22:57:18.573Z,62.08
2018-04-26T23:00:21.103Z,62.75
2018-04-26T23:03:23.571Z,62.10
2018-04-26T23:06:26.076Z,62.32
2018-04-26T23:09:28.571Z,62.96
2018-04-26T23:12:31.090Z,63.03
2018-04-26T23:15:33.612Z,63.80
2018-04-26T23:18:36.154Z,63.39
2018-04-26T23:21:38.684Z,62.92
2018-04-26T23:24:41.218Z,63.06
2018-04-26T23:27:43.735Z,63.56
2018-04-26T23:30:46.243Z,63.14
2018-04-26T23:33:48.770Z,63.95
2018-04-26T23:36:51.299Z,64.34
2018-04-26T23:39:53.802Z,65.98
2018-04-26T23:42:56.311Z,65.53
2018-04-26T23:45:58.830Z,65.60
2018-04-26T23:49:01.341Z,65.33
2018-04-26T23:52:03.845Z,66.65
2018-04-26T23:55:06.375Z,65.68
2018-04-26T23:58:08.886Z,66.66
